Flight Track Log - Related Links

Times and Time Zones

All times are in EDT time to prevent confusion due to time zone crossing. See the BBA27 flight status page for this flight to view local times or setup timezone preferences in your user account.

Time Position Orientation Groundspeed Altitude Reporting Facility
EDT Latitude Longitude Course Direction KTS MPH feet Rate Location/Type
Fri 08:48:06 PM 43.8000 -79.1500 North 250 288 3,000  Level Toronto Center
Fri 08:49:06 PM 43.7833 -79.0333 101° East 250 288 4,900 1,289 Climbing Toronto Center
Fri 08:50:07 PM 43.7833 -78.9333 90° East 260 299 5,600 1,950 Climbing Toronto Center
Fri 08:51:06 PM 43.8000 -78.8500 74° East 260 299 8,800 2,622 Climbing Toronto Center
Fri 08:52:06 PM 43.8333 -78.7500 65° Northeast 270 311 10,800 1,100 Climbing Toronto Center
Fri 08:53:00 PM 43.7425 -79.4656 North  Level Estimated
Fri 08:53:06 PM 43.8667 -78.6333 68° East 320 368 11,000  Level Toronto Center
Fri 08:54:06 PM 43.9000 -78.5000 71° East 350 403 11,000  Level Toronto Center
Fri 08:55:06 PM 43.9167 -78.3833 79° East 340 391 11,000  Level Toronto Center
Fri 08:56:07 PM 43.9500 -78.2500 71° East 340 391 11,000 -700 Level Toronto Center
Fri 08:57:06 PM 43.9833 -78.1333 68° East 340 391 9,600 -1,462 Descending Toronto Center
Fri 08:58:06 PM 44.0000 -78.0167 79° East 300 345 8,100 -1,450 Descending Toronto Center
Fri 08:59:06 PM 44.0167 -77.9167 77° East 280 322 6,700 -1,350 Descending Toronto Center
Fri 09:00:06 PM 44.0167 -77.8167 90° East 270 311 5,400 -286 Descending Toronto Center
Fri 09:03:00 PM 43.9801 -78.0457 258° West  Level Estimated
Fri 09:08:32 PM 44.2167 -77.1167 257° West 230 265 4,000  Level Montreal Center
Fri 09:09:32 PM 44.2667 -77.0500 44° Northeast 230 265 4,000  Level Montreal Center
Fri 09:10:00 PM 43.8404 -78.8944 257° West  Level Estimated
Fri 09:10:32 PM 44.3167 -77.0500 360° North 220 253 4,000  Level Montreal Center
Fri 09:11:00 PM 43.8200 -79.0154 257° West  Level Estimated
Fri 09:11:32 PM 44.3500 -77.1167 305° West 200 230 4,000  Level Montreal Center
Fri 09:12:00 PM 43.7994 -79.1362 257° West  Level Estimated
Fri 09:12:32 PM 44.3167 -77.1833 235° Southwest 200 230 4,000  Level Montreal Center
Fri 09:13:00 PM 43.7786 -79.2570 257° West  Level Estimated
Fri 09:13:32 PM 44.2833 -77.2333 227° Southwest 200 230 4,000  Level Montreal Center
Fri 09:16:00 PM 44.2430 -77.4079 252° West  Level Estimated
Fri 09:23:00 PM 44.0466 -78.2377 252° West  Level Estimated
Fri 09:24:00 PM 44.0180 -78.3558 251° West  Level Estimated
Fri 09:25:00 PM 43.9894 -78.4738 251° West  Level Estimated
Fri 09:26:00 PM 43.9606 -78.5917 251° West  Level Estimated
Fri 09:27:00 PM 43.9317 -78.7094 251° West  Level Estimated
Fri 09:27:00 PM 44.1922 -77.3390 254° West  Level Estimated
Fri 09:28:00 PM 43.9026 -78.8271 251° West  Level Estimated
Fri 09:29:00 PM 43.8735 -78.9446 251° West  Level Estimated
Fri 09:30:00 PM 43.8442 -79.0620 251° West  Level Estimated
Fri 09:31:00 PM 43.8148 -79.1793 251° West  Level Estimated
Fri 09:33:15 PM 44.1000 -77.6167 260° West 330 380 6,000  Level Montreal Center
Fri 09:33:53 PM 44.1333 -77.6333 340° North 190 219 8,300 3,429 Climbing Toronto Center
Fri 09:34:00 PM 44.0201 -78.1787 254° West  Level Estimated
Fri 09:34:53 PM 44.1667 -77.6833 313° West 210 242 11,600  Level Toronto Center
Fri 09:35:00 PM 44.0131 -78.2337 260° West  Level FlightAware Approximate
Fri 09:35:53 PM 44.2167 -77.7500 316° Northwest 240 276 12,000  Level Toronto Center
Fri 09:36:00 PM 44.0060 -78.2886 260° West  Level FlightAware Approximate
Fri 09:36:53 PM 44.2667 -77.8167 316° Northwest 240 276 12,000  Level Toronto Center
Fri 09:37:00 PM 43.9990 -78.3434 260° West  Level FlightAware Approximate
Fri 09:37:52 PM 44.3000 -77.8833 305° West 240 276 12,000  Level Toronto Center
Fri 09:38:00 PM 43.9918 -78.3983 260° West  Level FlightAware Approximate
Fri 09:38:52 PM 44.3500 -77.9500 316° Northwest 230 265 12,000  Level Toronto Center
Fri 09:39:52 PM 44.3833 -78.0167 305° West 220 253 12,000  Level Toronto Center
Fri 09:40:52 PM 44.4333 -78.0667 324° Northwest 210 242 12,000  Level Toronto Center
Fri 09:41:53 PM 44.4667 -78.1333 305° West 200 230 12,000  Level Toronto Center
Fri 09:42:52 PM 44.5000 -78.1833 313° West 210 242 12,000  Level Toronto Center
Fri 09:43:52 PM 44.5500 -78.2500 316° Northwest 200 230 12,000  Level Toronto Center
Fri 09:44:52 PM 44.5833 -78.3000 313° West 190 219 12,000  Level Toronto Center
Fri 09:45:52 PM 44.6167 -78.3500 313° West 180 207 12,000  Level Toronto Center
Fri 09:46:52 PM 44.6500 -78.4167 305° West 180 207 12,000  Level Toronto Center
Fri 09:47:53 PM 44.7167 -78.4833 325° Northwest 230 265 12,000 50 Level Toronto Center
Fri 09:48:52 PM 44.7667 -78.5500 317° Northwest 240 276 12,100  Climbing Toronto Center
Fri 09:49:52 PM 44.8167 -78.6167 317° Northwest 290 334 12,000 -50 Descending Toronto Center
Fri 09:50:52 PM 44.8833 -78.7167 313° West 310 357 12,000  Level Toronto Center
Fri 09:51:52 PM 44.9500 -78.7833 325° Northwest 310 357 12,000 50 Level Toronto Center
Fri 09:52:53 PM 45.0167 -78.8500 325° Northwest 310 357 12,100 50 Climbing Toronto Center
Fri 09:53:52 PM 45.0667 -78.9500 305° West 310 357 12,100 1,361 Level Toronto Center
Fri 09:54:52 PM 45.1333 -79.0167 325° Northwest 300 345 14,800 2,850 Climbing Toronto Center
Fri 09:55:52 PM 45.1833 -79.0667 325° Northwest 260 299 17,800 2,400 Climbing Toronto Center
Fri 09:56:52 PM 45.2667 -79.0833 352° North 270 311 19,600 1,835 Climbing Toronto Center
Fri 09:57:53 PM 45.3500 -79.0667 North 280 322 21,500 1,950 Climbing Toronto Center
Fri 09:58:52 PM 45.4167 -79.0167 28° Northeast 300 345 23,500 1,664 Climbing Toronto Center
Fri 09:59:52 PM 45.4833 -78.9500 35° Northeast 280 322 24,800 650 Climbing Toronto Center
Fri 10:00:52 PM 45.4833 -78.8167 90° East 340 391 24,800  Level Toronto Center
Fri 10:01:52 PM 45.4000 -78.8000 172° South 340 391 24,800  Level Toronto Center
Fri 10:02:53 PM 45.3500 -78.9167 239° Southwest 320 368 24,800  Level Toronto Center
Fri 10:03:53 PM 45.3333 -79.0167 257° West 310 357 24,800  Level Toronto Center
Fri 10:04:52 PM 45.3833 -79.1333 301° West 320 368 24,800  Level Toronto Center
Fri 10:05:52 PM 45.4333 -79.2500 301° West 320 368 24,800  Level Toronto Center
Fri 10:06:52 PM 45.4833 -79.3500 306° West 330 380 24,800  Level Toronto Center
Fri 10:07:52 PM 45.5333 -79.4667 301° West 320 368 24,800  Level Toronto Center
Fri 10:08:53 PM 45.6167 -79.4167 23° Northeast 350 403 24,800 -250 Level Toronto Center
Fri 10:09:52 PM 45.6000 -79.2667 99° East 380 437 24,300 -504 Descending Toronto Center
Fri 10:10:52 PM 45.5000 -79.2333 167° South 380 437 23,800 -150 Descending Toronto Center
Fri 10:11:52 PM 45.4000 -79.2000 167° South 360 414 24,000 99 Climbing Toronto Center
Fri 10:12:53 PM 45.3000 -79.1833 173° South 350 403 24,000  Level Toronto Center
Fri 10:13:52 PM 45.2000 -79.1833 180° South 350 403 24,000 -655 Level Toronto Center
Fri 10:14:52 PM 45.1000 -79.1667 173° South 370 426 22,700 -1,850 Descending Toronto Center
Fri 10:15:52 PM 45.0000 -79.1333 167° South 370 426 20,300 -2,300 Descending Toronto Center
Fri 10:16:52 PM 44.9000 -79.1333 180° South 370 426 18,100 -2,033 Descending Toronto Center
Fri 10:17:53 PM 44.8000 -79.1333 180° South 360 414 16,200 -1,850 Descending Toronto Center
Fri 10:18:52 PM 44.7167 -79.1833 203° Southwest 340 391 14,400 -1,563 Descending Toronto Center
Fri 10:19:52 PM 44.6333 -79.2333 203° Southwest 320 368 13,100 -1,300 Descending Toronto Center
Fri 10:20:52 PM 44.5500 -79.3000 210° Southwest 320 368 11,800 -1,300 Descending Toronto Center
Fri 10:21:52 PM 44.4833 -79.3500 208° Southwest 320 368 10,500 -1,339 Descending Toronto Center
Fri 10:22:53 PM 44.4000 -79.4167 210° Southwest 300 345 9,100 -1,339 Descending Toronto Center
Fri 10:23:53 PM 44.3333 -79.4667 208° Southwest 270 311 7,800 -1,261 Descending Toronto Center
Fri 10:24:52 PM 44.2833 -79.5167 216° Southwest 260 299 6,600 -1,311 Descending Toronto Center
Fri 10:25:52 PM 44.2167 -79.5333 190° South 260 299 5,200 -1,150 Descending Toronto Center
Fri 10:26:52 PM 44.1333 -79.5333 180° South 250 288 4,300 -1,000 Descending Toronto Center
Fri 10:27:52 PM 44.0667 -79.5667 200° South 250 288 3,200 -645 Descending Toronto Center
Fri 10:28:53 PM 44.0000 -79.5667 180° South 240 276 3,000 -100 Descending Toronto Center
Fri 10:29:52 PM 43.9333 -79.5833 190° South 240 276 3,000 -151 Level Toronto Center
Fri 10:30:52 PM 43.8833 -79.5667 166° South 230 265 2,700 -744 Descending Toronto Center
Fri 10:31:53 PM 43.8333 -79.5333 154° Southeast 220 253 1,500 -600 Descending Toronto Center
Fri 10:32:52 PM 43.7833 -79.5000 154° Southeast 160 184 1,500 -202 Level Toronto Center
Fri 10:33:52 PM 43.7667 -79.4667 125° Southeast 120 138 1,100 -400 Descending Toronto Center
Fri 10:34:52 PM 43.7333 -79.4500 160° South 110 127 700 -400 Descending Toronto Center

Login

Don't have an account? Register now (free) for customized features, flight alerts, and more!